createdAt,value
2018-09-23T00:00:59.732Z,0
2018-09-23T00:02:08.641Z,0
2018-09-23T00:03:17.292Z,0
2018-09-23T00:04:26.456Z,0
2018-09-23T00:05:35.357Z,0
2018-09-23T00:06:43.994Z,0
2018-09-23T00:07:52.640Z,0
2018-09-23T00:09:01.282Z,0
2018-09-23T00:10:09.927Z,0
2018-09-23T00:11:18.840Z,0
2018-09-23T00:12:27.487Z,0
2018-09-23T00:13:36.125Z,0
2018-09-23T00:14:44.768Z,0
2018-09-23T00:15:53.420Z,0
2018-09-23T00:17:02.323Z,0
2018-09-23T00:18:10.972Z,0
2018-09-23T00:19:19.875Z,0
2018-09-23T00:20:28.518Z,0
2018-09-23T00:21:37.158Z,0
2018-09-23T00:22:46.327Z,0
2018-09-23T00:23:54.967Z,0
2018-09-23T00:25:03.878Z,0
2018-09-23T00:26:12.787Z,0
2018-09-23T00:27:21.426Z,0
2018-09-23T00:28:30.327Z,0
2018-09-23T00:29:38.968Z,0
2018-09-23T00:30:47.882Z,0
2018-09-23T00:31:56.522Z,0
2018-09-23T00:33:05.164Z,0
2018-09-23T00:34:13.802Z,0
2018-09-23T00:35:22.450Z,0
2018-09-23T00:36:31.092Z,0
2018-09-23T00:37:39.736Z,0
2018-09-23T00:38:48.368Z,0
2018-09-23T00:39:57.013Z,0
2018-09-23T00:41:05.652Z,0
2018-09-23T00:42:14.297Z,0
2018-09-23T00:43:22.933Z,0
2018-09-23T00:44:31.574Z,0
2018-09-23T00:45:40.476Z,0
2018-09-23T00:46:49.120Z,0
2018-09-23T00:47:57.764Z,0
2018-09-23T00:49:06.401Z,0
2018-09-23T00:50:15.311Z,0
2018-09-23T00:51:24.208Z,0
2018-09-23T00:52:32.855Z,0
2018-09-23T00:53:41.493Z,0
2018-09-23T00:54:50.133Z,0
2018-09-23T00:55:58.774Z,0
2018-09-23T00:57:07.421Z,0
2018-09-23T00:58:16.055Z,0
2018-09-23T00:59:24.699Z,0
2018-09-23T01:00:33.337Z,0
2018-09-23T01:01:41.987Z,0
2018-09-23T01:02:50.891Z,0
2018-09-23T01:03:59.533Z,0
2018-09-23T01:05:08.169Z,0
2018-09-23T01:06:17.078Z,0
2018-09-23T01:07:25.990Z,0
2018-09-23T01:08:34.625Z,0
2018-09-23T01:09:43.270Z,0
2018-09-23T01:10:51.910Z,0
2018-09-23T01:12:00.553Z,0
2018-09-23T01:13:09.189Z,0
2018-09-23T01:14:18.102Z,0
2018-09-23T01:15:26.997Z,0
2018-09-23T01:16:35.645Z,0
2018-09-23T01:17:44.285Z,0
2018-09-23T01:18:52.926Z,0
2018-09-23T01:20:01.560Z,0
2018-09-23T01:21:10.204Z,0
2018-09-23T01:22:18.850Z,0
2018-09-23T01:23:27.493Z,0
2018-09-23T01:24:36.138Z,0
2018-09-23T01:25:45.035Z,0
2018-09-23T01:26:53.680Z,0
2018-09-23T01:28:02.318Z,0
2018-09-23T01:29:10.971Z,0
2018-09-23T01:30:19.879Z,0
2018-09-23T01:31:28.527Z,0
2018-09-23T01:32:37.168Z,0
2018-09-23T01:33:45.817Z,0
2018-09-23T01:34:54.453Z,0
2018-09-23T01:36:03.093Z,0
2018-09-23T01:37:11.730Z,0
2018-09-23T01:38:20.382Z,0
2018-09-23T01:39:29.018Z,0
2018-09-23T01:40:37.655Z,0
2018-09-23T01:41:46.293Z,0
2018-09-23T01:42:55.201Z,0
2018-09-23T01:44:04.117Z,0
2018-09-23T01:45:12.759Z,0
2018-09-23T01:46:21.669Z,0
2018-09-23T01:47:30.561Z,0
2018-09-23T01:48:39.479Z,0
2018-09-23T01:49:48.114Z,0
2018-09-23T01:50:56.763Z,0
2018-09-23T01:52:05.398Z,0
2018-09-23T01:53:14.049Z,0
2018-09-23T01:54:22.688Z,0
2018-09-23T01:55:31.331Z,0
2018-09-23T01:56:39.965Z,0
2018-09-23T01:57:48.604Z,0
2018-09-23T01:58:57.250Z,0
2018-09-23T02:00:05.895Z,0
2018-09-23T02:01:14.539Z,0
2018-09-23T02:02:23.442Z,0
2018-09-23T02:03:32.082Z,0
2018-09-23T02:04:40.991Z,0
2018-09-23T02:05:49.890Z,0
2018-09-23T02:06:58.544Z,0
2018-09-23T02:08:07.180Z,0
2018-09-23T02:09:15.829Z,0
2018-09-23T02:10:24.459Z,0
2018-09-23T02:11:33.109Z,0
2018-09-23T02:12:41.744Z,0
2018-09-23T02:13:50.386Z,0
2018-09-23T02:14:59.019Z,0
2018-09-23T02:16:07.665Z,0
2018-09-23T02:17:16.573Z,0
2018-09-23T02:18:25.218Z,0
2018-09-23T02:19:33.860Z,0
2018-09-23T02:20:42.761Z,0
2018-09-23T02:21:51.685Z,0
2018-09-23T02:23:00.324Z,0
2018-09-23T02:24:08.976Z,0
2018-09-23T02:25:17.611Z,0
2018-09-23T02:26:26.519Z,0
2018-09-23T02:27:35.155Z,0
2018-09-23T02:28:44.082Z,0
2018-09-23T02:29:52.977Z,0
2018-09-23T02:31:01.889Z,0
2018-09-23T02:32:10.540Z,0
2018-09-23T02:33:19.198Z,0
2018-09-23T02:34:27.839Z,0
2018-09-23T02:35:37.004Z,0
2018-09-23T02:36:45.648Z,0
2018-09-23T02:37:54.288Z,0
2018-09-23T02:39:03.204Z,0
2018-09-23T02:40:12.410Z,0
2018-09-23T02:41:21.592Z,0
2018-09-23T02:42:30.754Z,0
2018-09-23T02:43:39.933Z,0
2018-09-23T02:44:48.569Z,0
2018-09-23T02:45:57.215Z,0
2018-09-23T02:47:05.849Z,0
2018-09-23T02:48:14.502Z,0
2018-09-23T02:49:23.406Z,0
2018-09-23T02:50:32.048Z,0
2018-09-23T02:51:40.940Z,0
2018-09-23T02:52:49.585Z,0
2018-09-23T02:53:58.500Z,0
2018-09-23T02:55:07.144Z,0
2018-09-23T02:56:15.789Z,0
2018-09-23T02:57:24.687Z,0
2018-09-23T02:58:33.339Z,0
2018-09-23T02:59:41.978Z,0
2018-09-23T03:00:51.156Z,0
2018-09-23T03:02:00.600Z,0
2018-09-23T03:03:09.244Z,0
2018-09-23T03:04:17.887Z,0
2018-09-23T03:05:26.541Z,0
2018-09-23T03:06:35.443Z,0
2018-09-23T03:07:44.359Z,0
2018-09-23T03:08:53.001Z,0
2018-09-23T03:10:01.647Z,0
2018-09-23T03:11:10.828Z,0
2018-09-23T03:12:19.467Z,0
2018-09-23T03:13:28.110Z,0
2018-09-23T03:14:36.753Z,0
2018-09-23T03:15:45.657Z,0
2018-09-23T03:16:54.301Z,0
2018-09-23T03:18:02.944Z,0
2018-09-23T03:19:11.581Z,0
2018-09-23T03:20:20.225Z,0
2018-09-23T03:21:29.128Z,0
2018-09-23T03:22:37.778Z,0
2018-09-23T03:23:46.675Z,0
2018-09-23T03:24:55.326Z,0
2018-09-23T03:26:03.965Z,0
2018-09-23T03:27:12.609Z,0
2018-09-23T03:28:21.256Z,0
2018-09-23T03:29:30.181Z,0
2018-09-23T03:30:38.841Z,0
2018-09-23T03:31:47.496Z,0
2018-09-23T03:32:56.143Z,0
2018-09-23T03:34:04.779Z,0
2018-09-23T03:35:13.691Z,0
2018-09-23T03:36:22.326Z,0
2018-09-23T03:37:30.973Z,0
2018-09-23T03:38:39.878Z,0
2018-09-23T03:39:48.783Z,0
2018-09-23T03:40:57.424Z,0
2018-09-23T03:42:06.072Z,0
2018-09-23T03:43:14.969Z,0
2018-09-23T03:44:23.612Z,0
2018-09-23T03:45:32.254Z,0
2018-09-23T03:46:41.163Z,0
2018-09-23T03:47:49.805Z,0
2018-09-23T03:48:58.446Z,0
2018-09-23T03:50:07.093Z,0
2018-09-23T03:51:15.734Z,0
2018-09-23T03:52:24.379Z,0
2018-09-23T03:53:33.279Z,0
2018-09-23T03:54:42.452Z,0
2018-09-23T03:55:51.348Z,0
2018-09-23T03:56:59.992Z,0
2018-09-23T03:58:08.671Z,0
2018-09-23T03:59:17.551Z,0
2018-09-23T04:00:26.187Z,0
2018-09-23T04:01:34.839Z,0
2018-09-23T04:02:43.473Z,0
2018-09-23T04:03:52.121Z,0
2018-09-23T04:05:00.758Z,0
2018-09-23T04:06:09.688Z,0
2018-09-23T04:07:18.329Z,0
2018-09-23T04:08:27.237Z,0
2018-09-23T04:09:35.885Z,0
2018-09-23T04:10:44.532Z,0
2018-09-23T04:11:53.207Z,0
2018-09-23T04:13:01.821Z,0
2018-09-23T04:14:10.475Z,0
2018-09-23T04:15:19.119Z,0
2018-09-23T04:16:27.760Z,0
2018-09-23T04:17:36.403Z,0
2018-09-23T04:18:45.309Z,0
2018-09-23T04:19:53.949Z,0
2018-09-23T04:21:02.590Z,0
2018-09-23T04:22:11.235Z,0
2018-09-23T04:23:19.880Z,0
2018-09-23T04:24:28.521Z,0
2018-09-23T04:25:37.429Z,0
2018-09-23T04:26:46.065Z,0
2018-09-23T04:27:54.707Z,0
2018-09-23T04:29:03.358Z,0
2018-09-23T04:30:11.998Z,0
2018-09-23T04:31:20.641Z,0
2018-09-23T04:32:29.280Z,0
2018-09-23T04:33:37.930Z,0
2018-09-23T04:34:46.576Z,0
2018-09-23T04:35:55.215Z,0
2018-09-23T04:37:03.860Z,0
2018-09-23T04:38:12.500Z,0
2018-09-23T04:39:21.142Z,0
2018-09-23T04:40:29.785Z,0
2018-09-23T04:41:39.225Z,0
2018-09-23T04:42:47.879Z,0
2018-09-23T04:43:56.520Z,0
2018-09-23T04:45:05.695Z,0
2018-09-23T04:46:14.537Z,0
2018-09-23T04:47:23.178Z,0
2018-09-23T04:48:31.855Z,0
2018-09-23T04:49:40.459Z,0
2018-09-23T04:50:49.105Z,0
2018-09-23T04:51:58.003Z,0
2018-09-23T04:53:06.645Z,0
2018-09-23T04:54:15.286Z,0
2018-09-23T04:55:24.399Z,0
2018-09-23T04:56:32.919Z,0
2018-09-23T04:57:41.828Z,0
2018-09-23T04:58:50.463Z,0
2018-09-23T04:59:59.114Z,0
2018-09-23T05:01:07.756Z,0
2018-09-23T05:02:16.657Z,0
2018-09-23T05:03:25.297Z,0
2018-09-23T05:04:33.934Z,0
2018-09-23T05:05:42.585Z,0
2018-09-23T05:06:51.481Z,0
2018-09-23T05:08:00.388Z,0
2018-09-23T05:09:09.020Z,0
2018-09-23T05:10:17.669Z,0
2018-09-23T05:11:26.305Z,0
2018-09-23T05:12:34.950Z,0
2018-09-23T05:13:43.581Z,0
2018-09-23T05:14:52.500Z,0
2018-09-23T05:16:01.400Z,0
2018-09-23T05:17:10.046Z,0
2018-09-23T05:18:18.678Z,0
2018-09-23T05:19:27.588Z,0
2018-09-23T05:20:36.233Z,0
2018-09-23T05:21:45.152Z,0
2018-09-23T05:22:53.797Z,0
2018-09-23T05:24:02.432Z,0
2018-09-23T05:25:11.353Z,0
2018-09-23T05:26:19.990Z,5
2018-09-23T05:27:29.193Z,5
2018-09-23T05:28:37.827Z,5
2018-09-23T05:29:46.737Z,5
2018-09-23T05:30:55.694Z,5
2018-09-23T05:32:04.310Z,5
2018-09-23T05:33:12.948Z,5
2018-09-23T05:34:21.594Z,5
2018-09-23T05:35:30.287Z,10
2018-09-23T05:36:39.263Z,10
2018-09-23T05:37:47.901Z,10
2018-09-23T05:38:56.539Z,10
2018-09-23T05:40:05.181Z,10
2018-09-23T05:41:13.820Z,10
2018-09-23T05:42:22.471Z,10
2018-09-23T05:43:31.108Z,10
2018-09-23T05:44:39.754Z,10
2018-09-23T05:45:48.645Z,10
2018-09-23T05:46:57.297Z,15
2018-09-23T05:48:06.210Z,15
2018-09-23T05:49:15.123Z,15
2018-09-23T05:50:24.337Z,20
2018-09-23T05:51:32.986Z,20
2018-09-23T05:52:41.626Z,25
2018-09-23T05:53:50.270Z,25
2018-09-23T05:54:58.967Z,30
2018-09-23T05:56:07.549Z,30
2018-09-23T05:57:16.195Z,30
2018-09-23T05:58:24.839Z,25
2018-09-23T05:59:33.478Z,25
2018-09-23T06:00:42.127Z,25
2018-09-23T06:01:50.765Z,25
2018-09-23T06:02:59.431Z,30
2018-09-23T06:04:08.342Z,30
2018-09-23T06:05:16.994Z,35
2018-09-23T06:06:25.631Z,35
2018-09-23T06:07:34.279Z,35
2018-09-23T06:08:43.463Z,35
2018-09-23T06:09:52.112Z,35
2018-09-23T06:11:00.796Z,35
2018-09-23T06:12:09.395Z,40
2018-09-23T06:13:18.029Z,35
2018-09-23T06:14:26.936Z,35
2018-09-23T06:15:35.587Z,35
2018-09-23T06:16:44.546Z,35
2018-09-23T06:17:53.455Z,30
2018-09-23T06:19:02.351Z,30
2018-09-23T06:20:11.544Z,30
2018-09-23T06:21:20.439Z,30
2018-09-23T06:22:29.090Z,30
2018-09-23T06:23:37.724Z,30
2018-09-23T06:24:46.372Z,35
2018-09-23T06:25:55.010Z,35
2018-09-23T06:27:03.662Z,35
2018-09-23T06:28:12.294Z,35
2018-09-23T06:29:20.937Z,35
2018-09-23T06:30:29.847Z,35
2018-09-23T06:31:38.500Z,40
2018-09-23T06:32:47.142Z,40
2018-09-23T06:33:55.780Z,45
2018-09-23T06:35:04.425Z,45
2018-09-23T06:36:13.069Z,45
2018-09-23T06:37:21.982Z,45
2018-09-23T06:38:30.639Z,40
2018-09-23T06:39:39.266Z,35
2018-09-23T06:40:47.902Z,30
2018-09-23T06:41:56.550Z,30
2018-09-23T06:43:05.188Z,35
2018-09-23T06:44:13.835Z,40
2018-09-23T06:45:22.467Z,45
2018-09-23T06:46:31.112Z,50
2018-09-23T06:47:39.749Z,50
2018-09-23T06:48:48.391Z,45
2018-09-23T06:49:57.024Z,45
2018-09-23T06:51:05.693Z,45
2018-09-23T06:52:14.310Z,45
2018-09-23T06:53:22.955Z,40
2018-09-23T06:54:31.599Z,40
2018-09-23T06:55:40.231Z,40
2018-09-23T06:56:48.887Z,50
2018-09-23T06:57:57.511Z,50
2018-09-23T06:59:06.160Z,55
2018-09-23T07:00:15.062Z,55
2018-09-23T07:01:23.704Z,55
2018-09-23T07:02:32.349Z,50
2018-09-23T07:03:40.998Z,55
2018-09-23T07:04:49.709Z,55
2018-09-23T07:05:58.288Z,50
2018-09-23T07:07:06.935Z,50
2018-09-23T07:08:15.575Z,50
2018-09-23T07:09:24.479Z,50
2018-09-23T07:10:33.122Z,55
2018-09-23T07:11:41.765Z,55
2018-09-23T07:12:50.405Z,50
2018-09-23T07:13:59.051Z,45
2018-09-23T07:15:07.698Z,50
2018-09-23T07:16:16.599Z,50
2018-09-23T07:17:25.235Z,50
2018-09-23T07:18:33.885Z,60
2018-09-23T07:19:42.534Z,60
2018-09-23T07:20:51.175Z,60
2018-09-23T07:21:59.816Z,60
2018-09-23T07:23:08.462Z,60
2018-09-23T07:24:17.532Z,65
2018-09-23T07:25:26.371Z,65
2018-09-23T07:26:35.010Z,65
2018-09-23T07:27:43.656Z,65
2018-09-23T07:28:52.298Z,60
2018-09-23T07:30:01.432Z,55
2018-09-23T07:31:09.988Z,55
2018-09-23T07:32:18.622Z,65
2018-09-23T07:33:27.263Z,75
2018-09-23T07:34:35.904Z,75
2018-09-23T07:35:44.556Z,80
2018-09-23T07:36:53.231Z,75
2018-09-23T07:38:01.837Z,75
2018-09-23T07:39:10.479Z,70
2018-09-23T07:40:19.124Z,70
2018-09-23T07:41:27.760Z,75
2018-09-23T07:42:36.406Z,75
2018-09-23T07:43:45.046Z,75
2018-09-23T07:44:53.691Z,80
2018-09-23T07:46:02.333Z,85
2018-09-23T07:47:11.243Z,90
2018-09-23T07:48:20.285Z,90
2018-09-23T07:49:28.927Z,90
2018-09-23T07:50:37.574Z,90
2018-09-23T07:51:46.219Z,80
2018-09-23T07:52:54.864Z,75
2018-09-23T07:54:03.502Z,75
2018-09-23T07:55:12.158Z,75
2018-09-23T07:56:21.375Z,80
2018-09-23T07:57:29.991Z,80
2018-09-23T07:58:38.622Z,85
2018-09-23T07:59:47.805Z,95
2018-09-23T08:00:56.449Z,95
2018-09-23T08:02:05.097Z,100
2018-09-23T08:03:13.729Z,95
2018-09-23T08:04:22.374Z,85
2018-09-23T08:05:31.025Z,90
2018-09-23T08:06:39.940Z,95
2018-09-23T08:07:48.584Z,90
2018-09-23T08:08:57.218Z,75
2018-09-23T08:10:05.871Z,80
2018-09-23T08:11:14.510Z,85
2018-09-23T08:12:23.196Z,85
2018-09-23T08:13:31.988Z,80
2018-09-23T08:14:40.893Z,80
2018-09-23T08:15:49.084Z,85
2018-09-23T08:16:57.736Z,95
2018-09-23T08:18:06.371Z,120
2018-09-23T08:19:15.082Z,140
2018-09-23T08:20:23.798Z,140
2018-09-23T08:21:32.313Z,135
2018-09-23T08:22:40.954Z,140
2018-09-23T08:23:49.595Z,130
2018-09-23T08:24:58.530Z,140
2018-09-23T08:26:07.147Z,160
2018-09-23T08:27:16.063Z,180
2018-09-23T08:28:24.707Z,175
2018-09-23T08:29:33.349Z,170
2018-09-23T08:30:41.983Z,165
2018-09-23T08:31:50.630Z,155
2018-09-23T08:32:59.293Z,150
2018-09-23T08:34:07.917Z,155
2018-09-23T08:35:16.551Z,145
2018-09-23T08:36:25.202Z,140
2018-09-23T08:37:33.845Z,135
2018-09-23T08:38:42.752Z,125
2018-09-23T08:39:51.408Z,130
2018-09-23T08:41:00.038Z,140
2018-09-23T08:42:08.686Z,125
2018-09-23T08:43:17.704Z,105
2018-09-23T08:44:26.296Z,105
2018-09-23T08:45:34.930Z,95
2018-09-23T08:46:43.580Z,85
2018-09-23T08:47:52.254Z,75
2018-09-23T08:49:00.875Z,75
2018-09-23T08:50:09.772Z,85
2018-09-23T08:51:18.422Z,75
2018-09-23T08:52:27.059Z,70
2018-09-23T08:53:35.978Z,65
2018-09-23T08:54:44.617Z,65
2018-09-23T08:55:53.524Z,60
2018-09-23T08:57:02.163Z,65
2018-09-23T08:58:10.812Z,80
2018-09-23T08:59:19.452Z,95
2018-09-23T09:00:28.097Z,95
2018-09-23T09:01:37.000Z,95
2018-09-23T09:02:45.641Z,95
2018-09-23T09:03:54.650Z,100
2018-09-23T09:05:03.562Z,105
2018-09-23T09:06:12.208Z,110
2018-09-23T09:07:20.852Z,110
2018-09-23T09:08:29.760Z,110
2018-09-23T09:09:38.411Z,105
2018-09-23T09:10:47.327Z,100
2018-09-23T09:11:56.014Z,100
2018-09-23T09:13:04.611Z,100
2018-09-23T09:14:13.251Z,110
2018-09-23T09:15:21.897Z,105
2018-09-23T09:16:30.537Z,100
2018-09-23T09:17:39.454Z,100
2018-09-23T09:18:48.194Z,105
2018-09-23T09:19:56.744Z,130
2018-09-23T09:21:05.385Z,155
2018-09-23T09:22:14.022Z,155
2018-09-23T09:23:22.673Z,140
2018-09-23T09:24:31.310Z,115
2018-09-23T09:25:39.965Z,95
2018-09-23T09:26:49.415Z,95
2018-09-23T09:27:58.170Z,110
2018-09-23T09:29:06.812Z,120
2018-09-23T09:30:15.461Z,100
2018-09-23T09:31:24.103Z,95
2018-09-23T09:32:32.747Z,105
2018-09-23T09:33:41.384Z,115
2018-09-23T09:34:50.304Z,115
2018-09-23T09:35:58.946Z,125
2018-09-23T09:37:07.588Z,150
2018-09-23T09:38:16.228Z,165
2018-09-23T09:39:24.867Z,155
2018-09-23T09:40:33.517Z,145
2018-09-23T09:41:42.157Z,125
2018-09-23T09:42:50.802Z,115
2018-09-23T09:43:59.752Z,110
2018-09-23T09:45:08.367Z,115
2018-09-23T09:46:17.009Z,140
2018-09-23T09:47:25.652Z,135
2018-09-23T09:48:34.290Z,120
2018-09-23T09:49:42.942Z,110
2018-09-23T09:50:51.578Z,105
2018-09-23T09:52:00.485Z,105
2018-09-23T09:53:09.403Z,95
2018-09-23T09:54:18.310Z,90
2018-09-23T09:55:27.000Z,80
2018-09-23T09:56:35.596Z,80
2018-09-23T09:57:44.236Z,85
2018-09-23T09:58:52.884Z,80
2018-09-23T10:00:01.525Z,75
2018-09-23T10:01:10.171Z,70
2018-09-23T10:02:18.810Z,70
2018-09-23T10:03:27.459Z,70
2018-09-23T10:04:36.102Z,70
2018-09-23T10:05:44.745Z,65
2018-09-23T10:06:53.383Z,65
2018-09-23T10:08:02.027Z,60
2018-09-23T10:09:10.668Z,55
2018-09-23T10:10:19.314Z,55
2018-09-23T10:11:27.980Z,55
2018-09-23T10:12:36.886Z,60
2018-09-23T10:13:45.529Z,60
2018-09-23T10:14:54.456Z,65
2018-09-23T10:16:03.101Z,60
2018-09-23T10:17:11.740Z,55
2018-09-23T10:18:20.381Z,55
2018-09-23T10:19:29.024Z,65
2018-09-23T10:20:37.671Z,75
2018-09-23T10:21:46.310Z,85
2018-09-23T10:22:55.041Z,90
2018-09-23T10:24:04.373Z,95
2018-09-23T10:25:13.283Z,85
2018-09-23T10:26:21.921Z,80
2018-09-23T10:27:30.568Z,80
2018-09-23T10:28:39.207Z,80
2018-09-23T10:29:47.873Z,75
2018-09-23T10:30:56.863Z,75
2018-09-23T10:32:05.455Z,70
2018-09-23T10:33:14.096Z,70
2018-09-23T10:34:23.273Z,65
2018-09-23T10:35:31.919Z,65
2018-09-23T10:36:40.566Z,60
2018-09-23T10:37:49.205Z,55
2018-09-23T10:38:57.848Z,55
2018-09-23T10:40:06.759Z,45
2018-09-23T10:41:15.432Z,45
2018-09-23T10:42:24.041Z,40
2018-09-23T10:43:32.680Z,35
2018-09-23T10:44:41.330Z,35
2018-09-23T10:45:49.971Z,30
2018-09-23T10:46:58.614Z,30
2018-09-23T10:48:07.250Z,35
2018-09-23T10:49:15.900Z,40
2018-09-23T10:50:24.542Z,30
2018-09-23T10:51:33.191Z,35
2018-09-23T10:52:41.832Z,35
2018-09-23T10:53:50.467Z,45
2018-09-23T10:54:59.112Z,50
2018-09-23T10:56:08.014Z,55
2018-09-23T10:57:16.668Z,60
2018-09-23T10:58:25.298Z,65
2018-09-23T10:59:34.025Z,70
2018-09-23T11:00:43.485Z,75
2018-09-23T11:01:52.133Z,80
2018-09-23T11:03:00.763Z,80
2018-09-23T11:04:09.485Z,70
2018-09-23T11:05:18.325Z,55
2018-09-23T11:06:26.975Z,50
2018-09-23T11:07:35.975Z,55
2018-09-23T11:08:44.615Z,55
2018-09-23T11:09:53.343Z,65
2018-09-23T11:11:02.581Z,65
2018-09-23T11:12:11.228Z,65
2018-09-23T11:13:19.866Z,70
2018-09-23T11:14:28.514Z,70
2018-09-23T11:15:37.147Z,65
2018-09-23T11:16:45.796Z,65
2018-09-23T11:17:54.432Z,60
2018-09-23T11:19:03.342Z,60
2018-09-23T11:20:11.973Z,55
2018-09-23T11:21:20.622Z,55
2018-09-23T11:22:29.260Z,60
2018-09-23T11:23:38.197Z,65
2018-09-23T11:24:47.735Z,70
2018-09-23T11:25:56.351Z,70
2018-09-23T11:27:04.996Z,65
2018-09-23T11:28:13.641Z,60
2018-09-23T11:29:22.286Z,50
2018-09-23T11:30:30.923Z,40
2018-09-23T11:31:39.564Z,30
2018-09-23T11:32:48.202Z,30
2018-09-23T11:33:56.853Z,30
2018-09-23T11:35:05.485Z,45
2018-09-23T11:36:14.129Z,75
2018-09-23T11:37:23.028Z,95
2018-09-23T11:38:31.680Z,115
2018-09-23T11:39:40.575Z,120
2018-09-23T11:40:49.216Z,120
2018-09-23T11:41:57.855Z,120
2018-09-23T11:43:06.504Z,105
2018-09-23T11:44:15.151Z,95
2018-09-23T11:45:23.778Z,90
2018-09-23T11:46:32.419Z,95
2018-09-23T11:47:41.062Z,100
2018-09-23T11:48:49.712Z,90
2018-09-23T11:49:58.347Z,90
2018-09-23T11:51:06.989Z,80
2018-09-23T11:52:15.634Z,70
2018-09-23T11:53:24.541Z,75
2018-09-23T11:54:33.448Z,75
2018-09-23T11:55:42.088Z,65
2018-09-23T11:56:51.155Z,60
2018-09-23T11:57:59.798Z,60
2018-09-23T11:59:08.485Z,50
2018-09-23T12:00:17.615Z,45
2018-09-23T12:01:26.259Z,60
2018-09-23T12:02:34.898Z,55
2018-09-23T12:03:43.540Z,60
2018-09-23T12:04:52.178Z,60
2018-09-23T12:06:01.080Z,55
2018-09-23T12:07:09.724Z,60
2018-09-23T12:08:18.366Z,45
2018-09-23T12:09:27.007Z,55
2018-09-23T12:10:35.642Z,60
2018-09-23T12:11:44.566Z,60
2018-09-23T12:12:53.207Z,60
2018-09-23T12:14:02.111Z,50
2018-09-23T12:15:11.015Z,35
2018-09-23T12:16:20.190Z,30
2018-09-23T12:17:28.830Z,25
2018-09-23T12:18:37.475Z,25
2018-09-23T12:19:46.118Z,30
2018-09-23T12:20:54.762Z,25
2018-09-23T12:22:03.406Z,35
2018-09-23T12:23:12.310Z,35
2018-09-23T12:24:20.953Z,40
2018-09-23T12:25:30.074Z,35
2018-09-23T12:26:38.591Z,45
2018-09-23T12:27:47.221Z,55
2018-09-23T12:28:55.870Z,65
2018-09-23T12:30:04.503Z,80
2018-09-23T12:31:13.147Z,90
2018-09-23T12:32:21.790Z,105
2018-09-23T12:33:30.437Z,95
2018-09-23T12:34:39.332Z,80
2018-09-23T12:35:47.970Z,75
2018-09-23T12:36:56.608Z,75
2018-09-23T12:38:05.518Z,75
2018-09-23T12:39:14.155Z,75
2018-09-23T12:40:23.067Z,80
2018-09-23T12:41:31.701Z,70
2018-09-23T12:42:40.345Z,65
2018-09-23T12:43:48.987Z,60
2018-09-23T12:44:57.626Z,60
2018-09-23T12:46:06.328Z,60
2018-09-23T12:47:14.905Z,65
2018-09-23T12:48:23.553Z,55
2018-09-23T12:49:32.188Z,50
2018-09-23T12:50:40.841Z,45
2018-09-23T12:51:49.468Z,55
2018-09-23T12:52:58.114Z,50
2018-09-23T12:54:07.021Z,45
2018-09-23T12:55:15.659Z,40
2018-09-23T12:56:24.566Z,40
2018-09-23T12:57:33.469Z,45
2018-09-23T12:58:42.384Z,45
2018-09-23T12:59:51.029Z,45
2018-09-23T13:00:59.675Z,45
2018-09-23T13:02:08.306Z,50
2018-09-23T13:03:16.953Z,60
2018-09-23T13:04:25.588Z,60
2018-09-23T13:05:34.240Z,55
2018-09-23T13:06:42.872Z,45
2018-09-23T13:07:51.518Z,45
2018-09-23T13:09:00.162Z,65
2018-09-23T13:10:09.079Z,65
2018-09-23T13:11:17.711Z,60
2018-09-23T13:12:26.354Z,75
2018-09-23T13:13:34.992Z,80
2018-09-23T13:14:43.645Z,55
2018-09-23T13:15:52.541Z,60
2018-09-23T13:17:01.444Z,70
2018-09-23T13:18:10.253Z,65
2018-09-23T13:19:18.992Z,70
2018-09-23T13:20:27.636Z,65
2018-09-23T13:21:36.273Z,55
2018-09-23T13:22:44.919Z,50
2018-09-23T13:23:53.552Z,40
2018-09-23T13:25:02.202Z,40
2018-09-23T13:26:10.837Z,40
2018-09-23T13:27:19.483Z,30
2018-09-23T13:28:28.116Z,40
2018-09-23T13:29:36.763Z,40
2018-09-23T13:30:45.403Z,30
2018-09-23T13:31:54.047Z,40
2018-09-23T13:33:02.683Z,60
2018-09-23T13:34:11.320Z,110
2018-09-23T13:35:19.967Z,115
2018-09-23T13:36:28.613Z,105
2018-09-23T13:37:37.258Z,80
2018-09-23T13:38:45.892Z,65
2018-09-23T13:39:54.539Z,60
2018-09-23T13:41:03.505Z,55
2018-09-23T13:42:12.105Z,40
2018-09-23T13:43:20.736Z,35
2018-09-23T13:44:29.383Z,50
2018-09-23T13:45:38.018Z,60
2018-09-23T13:46:46.660Z,60
2018-09-23T13:47:55.571Z,60
2018-09-23T13:49:04.482Z,65
2018-09-23T13:50:13.130Z,70
2018-09-23T13:51:21.762Z,75
2018-09-23T13:52:30.404Z,85
2018-09-23T13:53:39.050Z,90
2018-09-23T13:54:47.955Z,90
2018-09-23T13:55:56.598Z,85
2018-09-23T13:57:05.229Z,85
2018-09-23T13:58:13.873Z,80
2018-09-23T13:59:22.511Z,70
2018-09-23T14:00:31.151Z,70
2018-09-23T14:01:39.785Z,75
2018-09-23T14:02:48.432Z,65
2018-09-23T14:03:57.326Z,60
2018-09-23T14:05:06.022Z,60
2018-09-23T14:06:14.606Z,60
2018-09-23T14:07:23.251Z,60
2018-09-23T14:08:31.901Z,65
2018-09-23T14:09:40.804Z,65
2018-09-23T14:10:49.699Z,55
2018-09-23T14:11:58.341Z,50
2018-09-23T14:13:06.975Z,50
2018-09-23T14:14:15.617Z,55
2018-09-23T14:15:24.263Z,65
2018-09-23T14:16:32.899Z,90
2018-09-23T14:17:41.556Z,90
2018-09-23T14:18:50.177Z,65
2018-09-23T14:19:58.827Z,75
2018-09-23T14:21:07.464Z,85
2018-09-23T14:22:16.109Z,70
2018-09-23T14:23:25.003Z,60
2018-09-23T14:24:33.652Z,60
2018-09-23T14:25:42.296Z,65
2018-09-23T14:26:50.942Z,70
2018-09-23T14:27:59.573Z,70
2018-09-23T14:29:08.216Z,75
2018-09-23T14:30:16.863Z,65
2018-09-23T14:31:25.510Z,65
2018-09-23T14:32:34.146Z,70
2018-09-23T14:33:42.780Z,70
2018-09-23T14:34:51.425Z,70
2018-09-23T14:36:00.063Z,65
2018-09-23T14:37:08.713Z,65
2018-09-23T14:38:17.344Z,65
2018-09-23T14:39:25.987Z,60
2018-09-23T14:40:34.880Z,55
2018-09-23T14:41:43.530Z,50
2018-09-23T14:42:52.166Z,50
2018-09-23T14:44:00.811Z,55
2018-09-23T14:45:09.723Z,65
2018-09-23T14:46:18.370Z,70
2018-09-23T14:47:27.008Z,60
2018-09-23T14:48:35.650Z,55
2018-09-23T14:49:44.291Z,50
2018-09-23T14:50:52.928Z,50
2018-09-23T14:52:01.576Z,55
2018-09-23T14:53:10.218Z,55
2018-09-23T14:54:18.913Z,65
2018-09-23T14:55:28.296Z,80
2018-09-23T14:56:37.207Z,80
2018-09-23T14:57:45.845Z,75
2018-09-23T14:58:54.486Z,70
2018-09-23T15:00:03.421Z,65
2018-09-23T15:01:11.771Z,60
2018-09-23T15:02:20.406Z,55
2018-09-23T15:03:29.313Z,55
2018-09-23T15:04:37.948Z,55
2018-09-23T15:05:46.592Z,55
2018-09-23T15:06:55.236Z,55
2018-09-23T15:08:03.884Z,55
2018-09-23T15:09:12.799Z,55
2018-09-23T15:10:21.425Z,55
2018-09-23T15:11:30.070Z,55
2018-09-23T15:12:38.970Z,55
2018-09-23T15:13:47.697Z,55
2018-09-23T15:14:56.255Z,55
2018-09-23T15:16:04.892Z,50
2018-09-23T15:17:13.535Z,50
2018-09-23T15:18:22.181Z,55
2018-09-23T15:19:30.816Z,55
2018-09-23T15:20:39.458Z,50
2018-09-23T15:21:48.103Z,45
2018-09-23T15:22:56.744Z,50
2018-09-23T15:24:05.385Z,50
2018-09-23T15:25:14.027Z,55
2018-09-23T15:26:22.667Z,55
2018-09-23T15:27:31.299Z,60
2018-09-23T15:28:39.944Z,60
2018-09-23T15:29:48.848Z,65
2018-09-23T15:30:57.487Z,65
2018-09-23T15:32:06.450Z,70
2018-09-23T15:33:15.093Z,80
2018-09-23T15:34:23.741Z,85
2018-09-23T15:35:32.381Z,80
2018-09-23T15:36:41.016Z,70
2018-09-23T15:37:49.662Z,65
2018-09-23T15:38:58.575Z,60
2018-09-23T15:40:07.482Z,55
2018-09-23T15:41:16.121Z,55
2018-09-23T15:42:25.146Z,50
2018-09-23T15:43:33.741Z,50
2018-09-23T15:44:42.388Z,50
2018-09-23T15:45:51.031Z,50
2018-09-23T15:46:59.663Z,45
2018-09-23T15:48:08.309Z,35
2018-09-23T15:49:16.945Z,25
2018-09-23T15:50:25.595Z,20
2018-09-23T15:51:34.224Z,20
2018-09-23T15:52:42.877Z,15
2018-09-23T15:53:51.515Z,15
2018-09-23T15:55:00.166Z,20
2018-09-23T15:56:08.795Z,20
2018-09-23T15:57:17.439Z,25
2018-09-23T15:58:26.075Z,25
2018-09-23T15:59:34.724Z,25
2018-09-23T16:00:43.367Z,30
2018-09-23T16:01:52.539Z,35
2018-09-23T16:03:01.177Z,40
2018-09-23T16:04:09.817Z,45
2018-09-23T16:05:18.515Z,50
2018-09-23T16:06:27.101Z,55
2018-09-23T16:07:35.792Z,60
2018-09-23T16:08:44.376Z,55
2018-09-23T16:09:53.023Z,55
2018-09-23T16:11:01.659Z,50
2018-09-23T16:12:10.304Z,50
2018-09-23T16:13:18.938Z,55
2018-09-23T16:14:27.585Z,55
2018-09-23T16:15:36.224Z,55
2018-09-23T16:16:44.864Z,50
2018-09-23T16:17:53.492Z,55
2018-09-23T16:19:02.201Z,55
2018-09-23T16:20:11.376Z,50
2018-09-23T16:21:20.024Z,45
2018-09-23T16:22:28.932Z,45
2018-09-23T16:23:37.561Z,50
2018-09-23T16:24:46.205Z,50
2018-09-23T16:25:54.896Z,45
2018-09-23T16:27:03.755Z,40
2018-09-23T16:28:12.387Z,35
2018-09-23T16:29:21.291Z,30